sensor_id;sensor_type;location;lat;lon;timestamp;P1;durP1;ratioP1;P2;durP2;ratioP2
82125;SDS011;71668;51.400;6.758;2023-12-22T00:01:27;7.10;;;2.13;;
82125;SDS011;71668;51.400;6.758;2023-12-22T00:03:59;6.70;;;2.20;;
82125;SDS011;71668;51.400;6.758;2023-12-22T00:06:29;5.90;;;1.97;;
82125;SDS011;71668;51.400;6.758;2023-12-22T00:08:56;6.20;;;2.03;;
82125;SDS011;71668;51.400;6.758;2023-12-22T00:11:24;8.47;;;1.90;;
82125;SDS011;71668;51.400;6.758;2023-12-22T00:13:51;6.93;;;2.30;;
82125;SDS011;71668;51.400;6.758;2023-12-22T00:16:23;6.67;;;1.90;;
82125;SDS011;71668;51.400;6.758;2023-12-22T00:18:52;5.83;;;2.30;;
82125;SDS011;71668;51.400;6.758;2023-12-22T00:21:22;6.10;;;1.87;;
82125;SDS011;71668;51.400;6.758;2023-12-22T00:23:50;5.77;;;1.97;;
82125;SDS011;71668;51.400;6.758;2023-12-22T00:26:20;7.27;;;2.00;;
82125;SDS011;71668;51.400;6.758;2023-12-22T00:28:46;8.60;;;2.20;;
82125;SDS011;71668;51.400;6.758;2023-12-22T00:31:15;7.73;;;2.60;;
82125;SDS011;71668;51.400;6.758;2023-12-22T00:33:43;4.30;;;1.70;;
82125;SDS011;71668;51.400;6.758;2023-12-22T00:36:16;6.00;;;2.23;;
82125;SDS011;71668;51.400;6.758;2023-12-22T00:38:44;7.47;;;2.03;;
82125;SDS011;71668;51.400;6.758;2023-12-22T00:41:11;6.50;;;1.77;;
82125;SDS011;71668;51.400;6.758;2023-12-22T00:43:39;9.57;;;2.57;;
82125;SDS011;71668;51.400;6.758;2023-12-22T00:46:06;8.17;;;2.10;;
82125;SDS011;71668;51.400;6.758;2023-12-22T00:48:33;5.33;;;1.90;;
82125;SDS011;71668;51.400;6.758;2023-12-22T00:51:00;8.50;;;2.27;;
82125;SDS011;71668;51.400;6.758;2023-12-22T00:53:28;12.00;;;2.20;;
82125;SDS011;71668;51.400;6.758;2023-12-22T00:55:55;8.63;;;2.33;;
82125;SDS011;71668;51.400;6.758;2023-12-22T00:58:22;6.87;;;2.10;;
82125;SDS011;71668;51.400;6.758;2023-12-22T01:00:49;8.10;;;2.33;;
82125;SDS011;71668;51.400;6.758;2023-12-22T01:03:16;10.23;;;2.90;;
82125;SDS011;71668;51.400;6.758;2023-12-22T01:05:45;9.73;;;2.40;;
82125;SDS011;71668;51.400;6.758;2023-12-22T01:08:12;8.90;;;2.43;;
82125;SDS011;71668;51.400;6.758;2023-12-22T01:10:39;7.43;;;2.27;;
82125;SDS011;71668;51.400;6.758;2023-12-22T01:13:06;6.83;;;2.40;;
82125;SDS011;71668;51.400;6.758;2023-12-22T01:15:36;8.83;;;1.90;;
82125;SDS011;71668;51.400;6.758;2023-12-22T01:18:03;9.47;;;2.70;;
82125;SDS011;71668;51.400;6.758;2023-12-22T01:20:31;5.60;;;1.90;;
82125;SDS011;71668;51.400;6.758;2023-12-22T01:23:00;9.07;;;2.47;;
82125;SDS011;71668;51.400;6.758;2023-12-22T01:25:28;7.83;;;2.40;;
82125;SDS011;71668;51.400;6.758;2023-12-22T01:27:54;9.63;;;2.17;;
82125;SDS011;71668;51.400;6.758;2023-12-22T01:30:21;8.10;;;1.93;;
82125;SDS011;71668;51.400;6.758;2023-12-22T01:32:48;8.23;;;2.27;;
82125;SDS011;71668;51.400;6.758;2023-12-22T01:35:15;9.67;;;2.00;;
82125;SDS011;71668;51.400;6.758;2023-12-22T01:37:42;5.60;;;2.27;;
82125;SDS011;71668;51.400;6.758;2023-12-22T01:40:09;10.23;;;2.00;;
82125;SDS011;71668;51.400;6.758;2023-12-22T01:42:35;6.33;;;2.03;;
82125;SDS011;71668;51.400;6.758;2023-12-22T01:45:02;10.80;;;2.73;;
82125;SDS011;71668;51.400;6.758;2023-12-22T01:47:29;5.53;;;2.10;;
82125;SDS011;71668;51.400;6.758;2023-12-22T01:49:57;7.17;;;1.50;;
82125;SDS011;71668;51.400;6.758;2023-12-22T01:52:24;5.67;;;1.73;;
82125;SDS011;71668;51.400;6.758;2023-12-22T01:54:52;8.17;;;1.70;;
82125;SDS011;71668;51.400;6.758;2023-12-22T01:57:21;6.70;;;1.57;;
82125;SDS011;71668;51.400;6.758;2023-12-22T01:59:48;4.13;;;1.43;;
82125;SDS011;71668;51.400;6.758;2023-12-22T02:02:15;3.20;;;1.30;;
82125;SDS011;71668;51.400;6.758;2023-12-22T02:04:43;2.83;;;1.23;;
82125;SDS011;71668;51.400;6.758;2023-12-22T02:07:11;4.87;;;1.23;;
82125;SDS011;71668;51.400;6.758;2023-12-22T02:09:38;3.90;;;1.50;;
82125;SDS011;71668;51.400;6.758;2023-12-22T02:12:05;5.20;;;1.50;;
82125;SDS011;71668;51.400;6.758;2023-12-22T02:14:32;4.30;;;1.70;;
82125;SDS011;71668;51.400;6.758;2023-12-22T02:22:06;5.47;;;1.63;;
82125;SDS011;71668;51.400;6.758;2023-12-22T02:24:35;4.80;;;1.53;;
82125;SDS011;71668;51.400;6.758;2023-12-22T02:27:04;6.10;;;1.93;;
82125;SDS011;71668;51.400;6.758;2023-12-22T02:29:51;5.80;;;1.80;;
82125;SDS011;71668;51.400;6.758;2023-12-22T02:32:23;4.67;;;1.70;;
82125;SDS011;71668;51.400;6.758;2023-12-22T02:34:56;2.67;;;1.30;;
82125;SDS011;71668;51.400;6.758;2023-12-22T02:37:24;6.47;;;1.73;;
82125;SDS011;71668;51.400;6.758;2023-12-22T02:39:54;4.13;;;1.60;;
82125;SDS011;71668;51.400;6.758;2023-12-22T02:42:22;3.27;;;1.50;;
82125;SDS011;71668;51.400;6.758;2023-12-22T02:44:56;6.57;;;1.80;;
82125;SDS011;71668;51.400;6.758;2023-12-22T02:47:25;6.50;;;1.73;;
82125;SDS011;71668;51.400;6.758;2023-12-22T02:49:54;4.53;;;1.60;;
82125;SDS011;71668;51.400;6.758;2023-12-22T02:52:21;3.37;;;1.50;;
82125;SDS011;71668;51.400;6.758;2023-12-22T02:54:48;5.60;;;1.60;;
82125;SDS011;71668;51.400;6.758;2023-12-22T02:57:15;5.10;;;1.40;;
82125;SDS011;71668;51.400;6.758;2023-12-22T02:59:42;4.10;;;1.60;;
82125;SDS011;71668;51.400;6.758;2023-12-22T03:02:08;3.13;;;1.43;;
82125;SDS011;71668;51.400;6.758;2023-12-22T03:04:35;5.43;;;1.77;;
82125;SDS011;71668;51.400;6.758;2023-12-22T03:07:02;7.73;;;1.97;;
82125;SDS011;71668;51.400;6.758;2023-12-22T03:09:29;5.60;;;1.87;;
82125;SDS011;71668;51.400;6.758;2023-12-22T03:11:56;5.13;;;1.67;;
82125;SDS011;71668;51.400;6.758;2023-12-22T03:14:31;6.30;;;1.97;;
82125;SDS011;71668;51.400;6.758;2023-12-22T03:17:04;7.33;;;2.13;;
82125;SDS011;71668;51.400;6.758;2023-12-22T03:19:32;7.03;;;2.33;;
82125;SDS011;71668;51.400;6.758;2023-12-22T03:22:00;9.30;;;2.30;;
82125;SDS011;71668;51.400;6.758;2023-12-22T03:24:27;6.57;;;1.83;;
82125;SDS011;71668;51.400;6.758;2023-12-22T03:26:55;5.60;;;1.77;;
82125;SDS011;71668;51.400;6.758;2023-12-22T03:29:22;6.17;;;1.83;;
82125;SDS011;71668;51.400;6.758;2023-12-22T03:31:49;8.70;;;2.33;;
82125;SDS011;71668;51.400;6.758;2023-12-22T03:34:16;9.77;;;1.93;;
82125;SDS011;71668;51.400;6.758;2023-12-22T03:36:43;9.63;;;2.30;;
82125;SDS011;71668;51.400;6.758;2023-12-22T03:39:15;5.93;;;2.10;;
82125;SDS011;71668;51.400;6.758;2023-12-22T03:41:42;7.13;;;2.03;;
82125;SDS011;71668;51.400;6.758;2023-12-22T03:44:08;7.43;;;2.50;;
82125;SDS011;71668;51.400;6.758;2023-12-22T03:46:35;5.27;;;2.27;;
82125;SDS011;71668;51.400;6.758;2023-12-22T03:49:02;9.90;;;2.20;;
82125;SDS011;71668;51.400;6.758;2023-12-22T03:51:29;6.23;;;1.93;;
82125;SDS011;71668;51.400;6.758;2023-12-22T03:53:56;7.17;;;2.20;;
82125;SDS011;71668;51.400;6.758;2023-12-22T03:56:23;5.80;;;2.10;;
82125;SDS011;71668;51.400;6.758;2023-12-22T03:58:50;8.80;;;2.10;;
82125;SDS011;71668;51.400;6.758;2023-12-22T04:01:17;7.33;;;2.63;;
82125;SDS011;71668;51.400;6.758;2023-12-22T04:03:44;7.87;;;2.60;;
82125;SDS011;71668;51.400;6.758;2023-12-22T04:06:10;9.83;;;2.87;;
82125;SDS011;71668;51.400;6.758;2023-12-22T04:08:37;4.87;;;1.80;;
82125;SDS011;71668;51.400;6.758;2023-12-22T04:11:04;7.83;;;2.60;;
82125;SDS011;71668;51.400;6.758;2023-12-22T04:13:31;7.03;;;2.40;;
82125;SDS011;71668;51.400;6.758;2023-12-22T04:15:58;9.90;;;2.57;;
82125;SDS011;71668;51.400;6.758;2023-12-22T04:18:25;11.93;;;2.63;;
82125;SDS011;71668;51.400;6.758;2023-12-22T04:20:52;13.10;;;2.60;;
82125;SDS011;71668;51.400;6.758;2023-12-22T04:23:21;11.00;;;2.90;;
82125;SDS011;71668;51.400;6.758;2023-12-22T04:25:48;9.80;;;2.67;;
82125;SDS011;71668;51.400;6.758;2023-12-22T04:28:15;13.37;;;3.17;;
82125;SDS011;71668;51.400;6.758;2023-12-22T04:30:42;12.83;;;3.10;;
82125;SDS011;71668;51.400;6.758;2023-12-22T04:33:09;10.87;;;2.90;;
82125;SDS011;71668;51.400;6.758;2023-12-22T04:35:36;18.90;;;3.30;;
82125;SDS011;71668;51.400;6.758;2023-12-22T04:38:03;14.63;;;3.13;;
82125;SDS011;71668;51.400;6.758;2023-12-22T04:40:30;10.73;;;2.50;;
82125;SDS011;71668;51.400;6.758;2023-12-22T04:42:57;13.47;;;2.90;;
82125;SDS011;71668;51.400;6.758;2023-12-22T04:45:24;11.83;;;3.27;;
82125;SDS011;71668;51.400;6.758;2023-12-22T04:47:51;13.47;;;3.03;;
82125;SDS011;71668;51.400;6.758;2023-12-22T04:50:18;16.53;;;3.17;;
82125;SDS011;71668;51.400;6.758;2023-12-22T04:52:45;14.40;;;3.37;;
82125;SDS011;71668;51.400;6.758;2023-12-22T04:55:12;14.77;;;3.47;;
82125;SDS011;71668;51.400;6.758;2023-12-22T04:57:39;14.03;;;3.03;;
82125;SDS011;71668;51.400;6.758;2023-12-22T05:00:06;11.93;;;3.33;;
82125;SDS011;71668;51.400;6.758;2023-12-22T05:02:33;10.80;;;3.27;;
82125;SDS011;71668;51.400;6.758;2023-12-22T05:05:00;12.10;;;3.17;;
82125;SDS011;71668;51.400;6.758;2023-12-22T05:07:29;10.80;;;3.23;;
82125;SDS011;71668;51.400;6.758;2023-12-22T05:09:56;11.77;;;3.13;;
82125;SDS011;71668;51.400;6.758;2023-12-22T05:12:23;11.10;;;3.07;;
82125;SDS011;71668;51.400;6.758;2023-12-22T05:14:50;14.40;;;3.80;;
82125;SDS011;71668;51.400;6.758;2023-12-22T05:17:17;11.27;;;3.17;;
82125;SDS011;71668;51.400;6.758;2023-12-22T05:19:44;8.50;;;2.50;;
82125;SDS011;71668;51.400;6.758;2023-12-22T05:22:10;6.30;;;2.47;;
82125;SDS011;71668;51.400;6.758;2023-12-22T05:24:37;11.27;;;2.30;;
82125;SDS011;71668;51.400;6.758;2023-12-22T05:27:04;8.77;;;2.20;;
82125;SDS011;71668;51.400;6.758;2023-12-22T05:29:31;6.00;;;2.00;;
82125;SDS011;71668;51.400;6.758;2023-12-22T05:31:58;5.33;;;1.90;;
82125;SDS011;71668;51.400;6.758;2023-12-22T05:34:26;4.17;;;1.70;;
82125;SDS011;71668;51.400;6.758;2023-12-22T05:36:53;6.57;;;1.80;;
82125;SDS011;71668;51.400;6.758;2023-12-22T05:39:20;4.30;;;1.60;;
82125;SDS011;71668;51.400;6.758;2023-12-22T05:41:47;7.53;;;1.70;;
82125;SDS011;71668;51.400;6.758;2023-12-22T05:44:13;8.07;;;1.83;;
82125;SDS011;71668;51.400;6.758;2023-12-22T05:46:40;5.90;;;2.33;;
82125;SDS011;71668;51.400;6.758;2023-12-22T05:49:07;7.93;;;1.93;;
82125;SDS011;71668;51.400;6.758;2023-12-22T05:51:37;8.53;;;1.83;;
82125;SDS011;71668;51.400;6.758;2023-12-22T05:54:06;6.70;;;2.20;;
82125;SDS011;71668;51.400;6.758;2023-12-22T05:56:34;6.10;;;1.57;;
82125;SDS011;71668;51.400;6.758;2023-12-22T05:59:01;5.73;;;1.60;;
82125;SDS011;71668;51.400;6.758;2023-12-22T06:01:29;6.57;;;2.03;;
82125;SDS011;71668;51.400;6.758;2023-12-22T06:03:56;9.17;;;1.90;;
82125;SDS011;71668;51.400;6.758;2023-12-22T06:06:23;6.57;;;2.07;;
82125;SDS011;71668;51.400;6.758;2023-12-22T06:08:50;7.00;;;2.30;;
82125;SDS011;71668;51.400;6.758;2023-12-22T06:11:17;7.27;;;2.20;;
82125;SDS011;71668;51.400;6.758;2023-12-22T06:13:44;8.43;;;2.10;;
82125;SDS011;71668;51.400;6.758;2023-12-22T06:16:12;7.80;;;1.93;;
82125;SDS011;71668;51.400;6.758;2023-12-22T06:18:43;6.07;;;2.10;;
82125;SDS011;71668;51.400;6.758;2023-12-22T06:21:10;9.10;;;2.70;;
82125;SDS011;71668;51.400;6.758;2023-12-22T06:23:37;5.53;;;2.27;;
82125;SDS011;71668;51.400;6.758;2023-12-22T06:26:07;8.83;;;2.93;;
82125;SDS011;71668;51.400;6.758;2023-12-22T06:28:35;6.73;;;2.77;;
82125;SDS011;71668;51.400;6.758;2023-12-22T06:31:04;10.97;;;2.63;;
82125;SDS011;71668;51.400;6.758;2023-12-22T06:33:31;7.73;;;2.23;;
82125;SDS011;71668;51.400;6.758;2023-12-22T06:35:58;10.30;;;2.50;;
82125;SDS011;71668;51.400;6.758;2023-12-22T06:38:25;12.63;;;2.87;;
82125;SDS011;71668;51.400;6.758;2023-12-22T06:40:51;11.17;;;2.37;;
82125;SDS011;71668;51.400;6.758;2023-12-22T06:43:18;15.67;;;3.57;;
82125;SDS011;71668;51.400;6.758;2023-12-22T06:45:45;9.13;;;2.57;;
82125;SDS011;71668;51.400;6.758;2023-12-22T06:48:12;17.60;;;3.20;;
82125;SDS011;71668;51.400;6.758;2023-12-22T06:50:39;12.10;;;3.37;;
82125;SDS011;71668;51.400;6.758;2023-12-22T06:53:06;15.80;;;3.20;;
82125;SDS011;71668;51.400;6.758;2023-12-22T06:55:47;15.30;;;3.57;;
82125;SDS011;71668;51.400;6.758;2023-12-22T06:58:14;16.57;;;3.33;;
82125;SDS011;71668;51.400;6.758;2023-12-22T07:00:41;14.17;;;3.40;;
82125;SDS011;71668;51.400;6.758;2023-12-22T07:03:08;15.83;;;3.23;;
82125;SDS011;71668;51.400;6.758;2023-12-22T07:05:35;12.13;;;3.13;;
82125;SDS011;71668;51.400;6.758;2023-12-22T07:08:03;10.30;;;3.23;;
82125;SDS011;71668;51.400;6.758;2023-12-22T07:10:30;11.80;;;3.47;;
82125;SDS011;71668;51.400;6.758;2023-12-22T07:12:57;8.07;;;2.70;;
82125;SDS011;71668;51.400;6.758;2023-12-22T07:15:24;12.23;;;2.43;;
82125;SDS011;71668;51.400;6.758;2023-12-22T07:17:51;6.93;;;2.17;;
82125;SDS011;71668;51.400;6.758;2023-12-22T07:20:18;11.30;;;2.90;;
82125;SDS011;71668;51.400;6.758;2023-12-22T07:22:46;13.20;;;3.20;;
82125;SDS011;71668;51.400;6.758;2023-12-22T07:25:13;9.30;;;2.43;;
82125;SDS011;71668;51.400;6.758;2023-12-22T07:27:40;11.23;;;2.80;;
82125;SDS011;71668;51.400;6.758;2023-12-22T07:30:07;10.30;;;2.73;;
82125;SDS011;71668;51.400;6.758;2023-12-22T07:32:37;9.23;;;3.17;;
82125;SDS011;71668;51.400;6.758;2023-12-22T07:35:04;11.37;;;3.00;;
82125;SDS011;71668;51.400;6.758;2023-12-22T07:37:35;11.20;;;3.07;;
82125;SDS011;71668;51.400;6.758;2023-12-22T07:40:04;13.00;;;3.23;;
82125;SDS011;71668;51.400;6.758;2023-12-22T07:42:31;12.53;;;2.90;;
82125;SDS011;71668;51.400;6.758;2023-12-22T07:44:58;13.40;;;3.50;;
82125;SDS011;71668;51.400;6.758;2023-12-22T07:47:28;10.60;;;3.17;;
82125;SDS011;71668;51.400;6.758;2023-12-22T07:49:55;12.87;;;3.60;;
82125;SDS011;71668;51.400;6.758;2023-12-22T07:52:22;8.93;;;3.20;;
82125;SDS011;71668;51.400;6.758;2023-12-22T07:54:49;14.43;;;3.83;;
82125;SDS011;71668;51.400;6.758;2023-12-22T07:57:15;13.33;;;3.93;;
82125;SDS011;71668;51.400;6.758;2023-12-22T07:59:42;12.57;;;3.23;;
82125;SDS011;71668;51.400;6.758;2023-12-22T08:02:10;15.03;;;4.67;;
82125;SDS011;71668;51.400;6.758;2023-12-22T08:04:37;19.73;;;4.63;;
82125;SDS011;71668;51.400;6.758;2023-12-22T08:07:04;14.83;;;4.63;;
82125;SDS011;71668;51.400;6.758;2023-12-22T08:09:31;18.07;;;4.30;;
82125;SDS011;71668;51.400;6.758;2023-12-22T08:11:59;20.87;;;4.63;;
82125;SDS011;71668;51.400;6.758;2023-12-22T08:14:27;16.03;;;4.30;;
82125;SDS011;71668;51.400;6.758;2023-12-22T08:16:54;16.27;;;4.57;;
82125;SDS011;71668;51.400;6.758;2023-12-22T08:19:21;16.87;;;4.93;;
82125;SDS011;71668;51.400;6.758;2023-12-22T08:21:54;14.17;;;4.83;;
82125;SDS011;71668;51.400;6.758;2023-12-22T08:24:22;19.03;;;5.13;;
82125;SDS011;71668;51.400;6.758;2023-12-22T08:26:49;18.20;;;5.20;;
82125;SDS011;71668;51.400;6.758;2023-12-22T08:29:17;21.33;;;4.80;;
82125;SDS011;71668;51.400;6.758;2023-12-22T08:31:45;18.83;;;6.07;;
82125;SDS011;71668;51.400;6.758;2023-12-22T08:34:13;17.57;;;5.27;;
82125;SDS011;71668;51.400;6.758;2023-12-22T08:36:40;18.97;;;5.43;;
82125;SDS011;71668;51.400;6.758;2023-12-22T08:39:07;18.80;;;4.50;;
82125;SDS011;71668;51.400;6.758;2023-12-22T08:41:35;19.97;;;5.77;;
82125;SDS011;71668;51.400;6.758;2023-12-22T08:44:05;24.77;;;5.93;;
82125;SDS011;71668;51.400;6.758;2023-12-22T08:46:33;27.30;;;6.33;;
82125;SDS011;71668;51.400;6.758;2023-12-22T08:49:02;21.57;;;5.70;;
82125;SDS011;71668;51.400;6.758;2023-12-22T08:51:32;25.87;;;6.30;;
82125;SDS011;71668;51.400;6.758;2023-12-22T08:54:02;26.47;;;6.20;;
82125;SDS011;71668;51.400;6.758;2023-12-22T08:56:33;20.37;;;5.70;;
82125;SDS011;71668;51.400;6.758;2023-12-22T08:59:01;23.67;;;5.83;;
82125;SDS011;71668;51.400;6.758;2023-12-22T09:01:28;25.10;;;6.20;;
82125;SDS011;71668;51.400;6.758;2023-12-22T09:03:55;28.40;;;6.33;;
82125;SDS011;71668;51.400;6.758;2023-12-22T09:06:23;24.93;;;6.17;;
82125;SDS011;71668;51.400;6.758;2023-12-22T09:08:51;25.10;;;6.07;;
82125;SDS011;71668;51.400;6.758;2023-12-22T09:11:19;28.33;;;6.23;;
82125;SDS011;71668;51.400;6.758;2023-12-22T09:13:47;23.87;;;6.20;;
82125;SDS011;71668;51.400;6.758;2023-12-22T09:16:19;24.87;;;6.07;;
82125;SDS011;71668;51.400;6.758;2023-12-22T09:18:51;23.33;;;6.10;;
82125;SDS011;71668;51.400;6.758;2023-12-22T09:21:19;24.73;;;6.67;;
82125;SDS011;71668;51.400;6.758;2023-12-22T09:23:46;27.00;;;5.63;;
82125;SDS011;71668;51.400;6.758;2023-12-22T09:26:13;23.07;;;6.37;;
82125;SDS011;71668;51.400;6.758;2023-12-22T09:28:42;22.10;;;5.67;;
82125;SDS011;71668;51.400;6.758;2023-12-22T09:31:09;26.20;;;5.87;;
82125;SDS011;71668;51.400;6.758;2023-12-22T09:33:36;22.70;;;6.03;;
82125;SDS011;71668;51.400;6.758;2023-12-22T09:36:03;26.83;;;6.67;;
82125;SDS011;71668;51.400;6.758;2023-12-22T09:38:31;22.87;;;6.50;;
82125;SDS011;71668;51.400;6.758;2023-12-22T09:40:58;20.03;;;5.53;;
82125;SDS011;71668;51.400;6.758;2023-12-22T09:43:26;24.50;;;5.80;;
82125;SDS011;71668;51.400;6.758;2023-12-22T09:45:53;22.03;;;5.73;;
82125;SDS011;71668;51.400;6.758;2023-12-22T09:48:20;19.63;;;5.53;;
82125;SDS011;71668;51.400;6.758;2023-12-22T09:50:54;15.37;;;4.70;;
82125;SDS011;71668;51.400;6.758;2023-12-22T09:53:22;22.87;;;4.83;;
82125;SDS011;71668;51.400;6.758;2023-12-22T09:55:50;17.70;;;4.47;;
82125;SDS011;71668;51.400;6.758;2023-12-22T09:58:18;21.83;;;3.90;;
82125;SDS011;71668;51.400;6.758;2023-12-22T10:00:45;20.23;;;4.63;;
82125;SDS011;71668;51.400;6.758;2023-12-22T10:03:13;17.17;;;3.90;;
82125;SDS011;71668;51.400;6.758;2023-12-22T10:05:42;13.53;;;3.80;;
82125;SDS011;71668;51.400;6.758;2023-12-22T10:08:10;15.23;;;4.73;;
82125;SDS011;71668;51.400;6.758;2023-12-22T10:10:39;12.20;;;3.50;;
82125;SDS011;71668;51.400;6.758;2023-12-22T10:13:12;13.43;;;3.80;;
82125;SDS011;71668;51.400;6.758;2023-12-22T10:15:40;10.90;;;3.00;;
82125;SDS011;71668;51.400;6.758;2023-12-22T10:18:07;10.50;;;3.27;;
82125;SDS011;71668;51.400;6.758;2023-12-22T10:20:35;11.43;;;3.10;;
82125;SDS011;71668;51.400;6.758;2023-12-22T10:23:03;11.43;;;3.00;;
82125;SDS011;71668;51.400;6.758;2023-12-22T10:25:30;10.03;;;2.97;;
82125;SDS011;71668;51.400;6.758;2023-12-22T10:27:57;9.33;;;2.70;;
82125;SDS011;71668;51.400;6.758;2023-12-22T10:30:24;7.87;;;2.67;;
82125;SDS011;71668;51.400;6.758;2023-12-22T10:32:51;11.67;;;3.00;;
82125;SDS011;71668;51.400;6.758;2023-12-22T10:35:22;10.53;;;2.90;;
82125;SDS011;71668;51.400;6.758;2023-12-22T10:37:49;10.33;;;3.00;;
82125;SDS011;71668;51.400;6.758;2023-12-22T10:40:20;8.40;;;2.53;;
82125;SDS011;71668;51.400;6.758;2023-12-22T10:42:50;9.27;;;2.40;;
82125;SDS011;71668;51.400;6.758;2023-12-22T10:45:20;9.47;;;2.33;;
82125;SDS011;71668;51.400;6.758;2023-12-22T10:47:48;7.43;;;2.53;;
82125;SDS011;71668;51.400;6.758;2023-12-22T10:50:21;7.57;;;2.60;;
82125;SDS011;71668;51.400;6.758;2023-12-22T10:52:51;8.27;;;2.30;;
82125;SDS011;71668;51.400;6.758;2023-12-22T10:55:18;9.07;;;2.80;;
82125;SDS011;71668;51.400;6.758;2023-12-22T10:57:46;7.73;;;2.10;;
82125;SDS011;71668;51.400;6.758;2023-12-22T11:00:17;5.67;;;2.17;;
82125;SDS011;71668;51.400;6.758;2023-12-22T11:02:49;7.47;;;2.00;;
82125;SDS011;71668;51.400;6.758;2023-12-22T11:05:27;6.50;;;2.77;;
82125;SDS011;71668;51.400;6.758;2023-12-22T11:07:54;6.40;;;2.13;;
82125;SDS011;71668;51.400;6.758;2023-12-22T11:10:25;6.47;;;2.20;;
82125;SDS011;71668;51.400;6.758;2023-12-22T11:12:53;4.33;;;1.90;;
82125;SDS011;71668;51.400;6.758;2023-12-22T11:15:24;5.90;;;1.93;;
82125;SDS011;71668;51.400;6.758;2023-12-22T11:17:53;6.23;;;2.00;;
82125;SDS011;71668;51.400;6.758;2023-12-22T11:20:22;7.43;;;2.07;;
82125;SDS011;71668;51.400;6.758;2023-12-22T11:22:50;5.83;;;2.33;;
82125;SDS011;71668;51.400;6.758;2023-12-22T11:25:18;4.57;;;2.03;;
82125;SDS011;71668;51.400;6.758;2023-12-22T11:27:47;5.10;;;2.00;;
82125;SDS011;71668;51.400;6.758;2023-12-22T11:30:18;8.83;;;2.50;;
82125;SDS011;71668;51.400;6.758;2023-12-22T11:32:46;7.87;;;2.10;;
82125;SDS011;71668;51.400;6.758;2023-12-22T11:35:15;4.90;;;2.47;;
82125;SDS011;71668;51.400;6.758;2023-12-22T11:37:43;6.10;;;2.13;;
82125;SDS011;71668;51.400;6.758;2023-12-22T11:40:13;6.50;;;2.17;;
82125;SDS011;71668;51.400;6.758;2023-12-22T11:42:41;3.73;;;1.70;;
82125;SDS011;71668;51.400;6.758;2023-12-22T11:45:14;6.13;;;2.13;;
82125;SDS011;71668;51.400;6.758;2023-12-22T11:47:43;4.03;;;1.80;;
82125;SDS011;71668;51.400;6.758;2023-12-22T11:50:10;4.70;;;1.57;;
82125;SDS011;71668;51.400;6.758;2023-12-22T11:52:38;4.47;;;1.97;;
82125;SDS011;71668;51.400;6.758;2023-12-22T11:55:06;5.50;;;2.30;;
82125;SDS011;71668;51.400;6.758;2023-12-22T11:57:36;6.50;;;2.10;;
82125;SDS011;71668;51.400;6.758;2023-12-22T12:02:56;5.33;;;1.93;;
82125;SDS011;71668;51.400;6.758;2023-12-22T12:05:23;4.40;;;1.80;;
82125;SDS011;71668;51.400;6.758;2023-12-22T12:07:50;3.33;;;1.73;;
82125;SDS011;71668;51.400;6.758;2023-12-22T12:13:04;6.50;;;1.83;;
82125;SDS011;71668;51.400;6.758;2023-12-22T12:15:35;5.53;;;1.80;;
82125;SDS011;71668;51.400;6.758;2023-12-22T12:18:04;6.07;;;1.70;;
82125;SDS011;71668;51.400;6.758;2023-12-22T12:20:34;3.30;;;1.40;;
82125;SDS011;71668;51.400;6.758;2023-12-22T12:23:02;4.67;;;1.67;;
82125;SDS011;71668;51.400;6.758;2023-12-22T12:25:29;6.03;;;1.90;;
82125;SDS011;71668;51.400;6.758;2023-12-22T12:28:03;6.17;;;1.80;;
82125;SDS011;71668;51.400;6.758;2023-12-22T12:30:35;3.50;;;1.30;;
82125;SDS011;71668;51.400;6.758;2023-12-22T12:33:06;6.27;;;1.90;;
82125;SDS011;71668;51.400;6.758;2023-12-22T12:35:37;4.90;;;1.70;;
82125;SDS011;71668;51.400;6.758;2023-12-22T12:38:11;4.77;;;1.60;;
82125;SDS011;71668;51.400;6.758;2023-12-22T12:40:39;3.23;;;1.80;;
82125;SDS011;71668;51.400;6.758;2023-12-22T12:43:07;5.13;;;1.93;;
82125;SDS011;71668;51.400;6.758;2023-12-22T12:45:34;7.47;;;1.90;;
82125;SDS011;71668;51.400;6.758;2023-12-22T12:48:02;7.43;;;1.87;;
82125;SDS011;71668;51.400;6.758;2023-12-22T12:50:32;5.53;;;2.00;;
82125;SDS011;71668;51.400;6.758;2023-12-22T12:52:59;8.60;;;2.10;;
82125;SDS011;71668;51.400;6.758;2023-12-22T12:55:27;3.63;;;1.40;;
82125;SDS011;71668;51.400;6.758;2023-12-22T12:57:54;5.63;;;2.30;;
82125;SDS011;71668;51.400;6.758;2023-12-22T13:00:29;5.10;;;2.03;;
82125;SDS011;71668;51.400;6.758;2023-12-22T13:03:01;6.77;;;1.60;;
82125;SDS011;71668;51.400;6.758;2023-12-22T13:05:30;4.20;;;1.77;;
82125;SDS011;71668;51.400;6.758;2023-12-22T13:10:35;5.20;;;1.60;;
82125;SDS011;71668;51.400;6.758;2023-12-22T13:13:03;4.77;;;1.93;;
82125;SDS011;71668;51.400;6.758;2023-12-22T13:15:30;5.47;;;1.70;;
82125;SDS011;71668;51.400;6.758;2023-12-22T13:17:58;6.77;;;2.00;;
82125;SDS011;71668;51.400;6.758;2023-12-22T13:20:25;6.23;;;1.73;;
82125;SDS011;71668;51.400;6.758;2023-12-22T13:22:52;4.63;;;1.70;;
82125;SDS011;71668;51.400;6.758;2023-12-22T13:25:19;5.67;;;1.63;;
82125;SDS011;71668;51.400;6.758;2023-12-22T13:27:48;6.07;;;1.80;;
82125;SDS011;71668;51.400;6.758;2023-12-22T13:30:35;5.20;;;1.90;;
82125;SDS011;71668;51.400;6.758;2023-12-22T13:33:05;5.20;;;1.63;;
82125;SDS011;71668;51.400;6.758;2023-12-22T13:35:32;5.87;;;1.77;;
82125;SDS011;71668;51.400;6.758;2023-12-22T13:38:07;6.07;;;2.13;;
82125;SDS011;71668;51.400;6.758;2023-12-22T13:40:35;44.80;;;11.63;;
82125;SDS011;71668;51.400;6.758;2023-12-22T13:43:02;37.70;;;11.90;;
82125;SDS011;71668;51.400;6.758;2023-12-22T13:45:30;5.23;;;1.83;;
82125;SDS011;71668;51.400;6.758;2023-12-22T13:47:57;5.60;;;1.80;;
82125;SDS011;71668;51.400;6.758;2023-12-22T13:50:25;3.57;;;1.60;;
82125;SDS011;71668;51.400;6.758;2023-12-22T13:52:52;6.53;;;2.20;;
82125;SDS011;71668;51.400;6.758;2023-12-22T13:55:19;4.33;;;1.73;;
82125;SDS011;71668;51.400;6.758;2023-12-22T13:57:49;3.30;;;1.60;;
82125;SDS011;71668;51.400;6.758;2023-12-22T14:00:29;4.57;;;1.67;;
82125;SDS011;71668;51.400;6.758;2023-12-22T14:02:57;5.43;;;1.70;;
82125;SDS011;71668;51.400;6.758;2023-12-22T14:05:25;6.73;;;1.90;;
82125;SDS011;71668;51.400;6.758;2023-12-22T14:07:56;5.87;;;1.80;;
82125;SDS011;71668;51.400;6.758;2023-12-22T14:10:24;5.53;;;1.77;;
82125;SDS011;71668;51.400;6.758;2023-12-22T14:12:51;8.10;;;2.03;;
82125;SDS011;71668;51.400;6.758;2023-12-22T14:15:17;6.73;;;2.37;;
82125;SDS011;71668;51.400;6.758;2023-12-22T14:17:45;3.53;;;1.67;;
82125;SDS011;71668;51.400;6.758;2023-12-22T14:20:12;5.73;;;1.70;;
82125;SDS011;71668;51.400;6.758;2023-12-22T14:22:39;5.83;;;2.03;;
82125;SDS011;71668;51.400;6.758;2023-12-22T14:25:06;5.23;;;1.70;;
82125;SDS011;71668;51.400;6.758;2023-12-22T14:27:33;4.70;;;2.03;;
82125;SDS011;71668;51.400;6.758;2023-12-22T14:30:00;6.13;;;2.43;;
82125;SDS011;71668;51.400;6.758;2023-12-22T14:32:27;5.77;;;2.00;;
82125;SDS011;71668;51.400;6.758;2023-12-22T14:34:56;4.23;;;1.70;;
82125;SDS011;71668;51.400;6.758;2023-12-22T14:37:23;5.67;;;1.93;;
82125;SDS011;71668;51.400;6.758;2023-12-22T14:39:50;5.00;;;2.30;;
82125;SDS011;71668;51.400;6.758;2023-12-22T14:42:17;8.73;;;2.37;;
82125;SDS011;71668;51.400;6.758;2023-12-22T14:44:43;6.77;;;2.10;;
82125;SDS011;71668;51.400;6.758;2023-12-22T14:47:10;4.17;;;2.00;;
82125;SDS011;71668;51.400;6.758;2023-12-22T14:49:39;6.53;;;1.87;;
82125;SDS011;71668;51.400;6.758;2023-12-22T14:52:07;8.77;;;1.97;;
82125;SDS011;71668;51.400;6.758;2023-12-22T14:54:34;6.90;;;2.23;;
82125;SDS011;71668;51.400;6.758;2023-12-22T14:57:01;5.20;;;2.43;;
82125;SDS011;71668;51.400;6.758;2023-12-22T14:59:28;5.70;;;2.10;;
82125;SDS011;71668;51.400;6.758;2023-12-22T15:01:55;4.77;;;1.80;;